sensor_id;sensor_type;location;lat;lon;timestamp;pressure;altitude;pressure_sealevel;temperature;humidity
6528;BME280;64597;42.664;23.256;2023-05-02T00:01:57;94865.06;;;12.07;58.24
6528;BME280;64597;42.664;23.256;2023-05-02T00:04:22;94870.16;;;11.97;58.48
6528;BME280;64597;42.664;23.256;2023-05-02T00:06:51;94869.97;;;11.87;58.98
6528;BME280;64597;42.664;23.256;2023-05-02T00:09:16;94866.88;;;11.79;59.32
6528;BME280;64597;42.664;23.256;2023-05-02T00:11:42;94865.13;;;11.84;59.10
6528;BME280;64597;42.664;23.256;2023-05-02T00:14:07;94867.81;;;11.73;60.39
6528;BME280;64597;42.664;23.256;2023-05-02T00:16:33;94859.31;;;11.47;61.05
6528;BME280;64597;42.664;23.256;2023-05-02T00:18:58;94873.66;;;11.51;61.34
6528;BME280;64597;42.664;23.256;2023-05-02T00:21:24;94865.00;;;11.28;62.00
6528;BME280;64597;42.664;23.256;2023-05-02T00:23:52;94888.84;;;11.44;61.57
6528;BME280;64597;42.664;23.256;2023-05-02T00:26:18;94892.19;;;11.40;61.92
6528;BME280;64597;42.664;23.256;2023-05-02T00:28:43;94892.75;;;11.42;61.37
6528;BME280;64597;42.664;23.256;2023-05-02T00:31:08;94891.69;;;11.54;61.21
6528;BME280;64597;42.664;23.256;2023-05-02T00:33:34;94879.19;;;11.50;61.10
6528;BME280;64597;42.664;23.256;2023-05-02T00:35:59;94905.81;;;11.60;60.98
6528;BME280;64597;42.664;23.256;2023-05-02T00:38:25;94900.19;;;11.68;60.82
6528;BME280;64597;42.664;23.256;2023-05-02T00:40:50;94902.41;;;11.71;60.74
6528;BME280;64597;42.664;23.256;2023-05-02T00:43:17;94905.94;;;11.77;60.83
6528;BME280;64597;42.664;23.256;2023-05-02T00:45:44;94906.06;;;11.70;60.67
6528;BME280;64597;42.664;23.256;2023-05-02T00:48:10;94894.78;;;11.51;60.60
6528;BME280;64597;42.664;23.256;2023-05-02T00:50:38;94915.22;;;11.56;60.69
6528;BME280;64597;42.664;23.256;2023-05-02T00:53:05;94904.22;;;11.59;60.52
6528;BME280;64597;42.664;23.256;2023-05-02T00:55:31;94901.78;;;11.57;60.48
6528;BME280;64597;42.664;23.256;2023-05-02T00:58:04;94904.31;;;11.64;59.94
6528;BME280;64597;42.664;23.256;2023-05-02T01:00:51;94907.31;;;11.68;59.75
6528;BME280;64597;42.664;23.256;2023-05-02T01:03:31;94902.16;;;11.61;59.59
6528;BME280;64597;42.664;23.256;2023-05-02T01:08:45;94887.31;;;11.60;59.74
6528;BME280;64597;42.664;23.256;2023-05-02T01:11:27;94891.72;;;11.66;59.56
6528;BME280;64597;42.664;23.256;2023-05-02T01:14:00;94885.13;;;11.57;59.45
6528;BME280;64597;42.664;23.256;2023-05-02T01:16:30;94881.91;;;11.55;59.43
6528;BME280;64597;42.664;23.256;2023-05-02T01:18:58;94880.09;;;11.55;59.13
6528;BME280;64597;42.664;23.256;2023-05-02T01:21:26;94873.22;;;11.54;59.54
6528;BME280;64597;42.664;23.256;2023-05-02T01:24:11;94875.75;;;11.38;60.03
6528;BME280;64597;42.664;23.256;2023-05-02T01:26:51;94862.91;;;11.30;60.28
6528;BME280;64597;42.664;23.256;2023-05-02T01:29:22;94863.84;;;11.24;60.70
6528;BME280;64597;42.664;23.256;2023-05-02T01:31:55;94873.25;;;11.20;60.64
6528;BME280;64597;42.664;23.256;2023-05-02T01:34:24;94880.69;;;11.23;61.16
6528;BME280;64597;42.664;23.256;2023-05-02T01:36:50;94875.53;;;11.28;60.52
6528;BME280;64597;42.664;23.256;2023-05-02T01:39:21;94875.66;;;11.21;60.40
6528;BME280;64597;42.664;23.256;2023-05-02T01:41:49;94891.25;;;11.23;60.13
6528;BME280;64597;42.664;23.256;2023-05-02T01:44:17;94881.75;;;11.22;60.49
6528;BME280;64597;42.664;23.256;2023-05-02T01:46:44;94885.66;;;11.08;61.25
6528;BME280;64597;42.664;23.256;2023-05-02T01:49:10;94898.84;;;11.08;60.86
6528;BME280;64597;42.664;23.256;2023-05-02T01:51:40;94883.59;;;11.10;60.78
6528;BME280;64597;42.664;23.256;2023-05-02T01:54:08;94876.00;;;11.02;61.23
6528;BME280;64597;42.664;23.256;2023-05-02T01:56:36;94890.22;;;11.01;61.48
6528;BME280;64597;42.664;23.256;2023-05-02T01:59:05;94876.00;;;11.02;61.59
6528;BME280;64597;42.664;23.256;2023-05-02T02:01:36;94863.84;;;10.89;61.68
6528;BME280;64597;42.664;23.256;2023-05-02T02:04:03;94879.22;;;11.04;61.86
6528;BME280;64597;42.664;23.256;2023-05-02T02:06:31;94876.78;;;11.02;61.85
6528;BME280;64597;42.664;23.256;2023-05-02T02:08:56;94866.38;;;10.96;61.79
6528;BME280;64597;42.664;23.256;2023-05-02T02:11:46;94874.84;;;11.09;61.78
6528;BME280;64597;42.664;23.256;2023-05-02T02:14:21;94877.72;;;11.08;61.59
6528;BME280;64597;42.664;23.256;2023-05-02T02:16:52;94879.81;;;11.06;61.57
6528;BME280;64597;42.664;23.256;2023-05-02T02:19:20;94885.84;;;11.06;61.08
6528;BME280;64597;42.664;23.256;2023-05-02T02:21:47;94869.94;;;11.01;60.99
6528;BME280;64597;42.664;23.256;2023-05-02T02:24:17;94886.31;;;11.15;61.18
6528;BME280;64597;42.664;23.256;2023-05-02T02:26:45;94878.06;;;11.00;62.82
6528;BME280;64597;42.664;23.256;2023-05-02T02:29:10;94887.47;;;11.19;63.53
6528;BME280;64597;42.664;23.256;2023-05-02T02:31:36;94892.63;;;11.25;64.00
6528;BME280;64597;42.664;23.256;2023-05-02T02:34:03;94898.72;;;11.26;63.96
6528;BME280;64597;42.664;23.256;2023-05-02T02:36:59;94896.09;;;11.26;64.37
6528;BME280;64597;42.664;23.256;2023-05-02T02:39:34;94898.84;;;11.19;63.31
6528;BME280;64597;42.664;23.256;2023-05-02T02:44:55;94903.50;;;10.83;62.54
6528;BME280;64597;42.664;23.256;2023-05-02T02:47:31;94908.31;;;10.86;62.72
6528;BME280;64597;42.664;23.256;2023-05-02T02:50:13;94902.78;;;10.75;62.40
6528;BME280;64597;42.664;23.256;2023-05-02T02:52:58;94911.66;;;10.81;61.92
6528;BME280;64597;42.664;23.256;2023-05-02T02:55:53;94922.78;;;10.83;62.01
6528;BME280;64597;42.664;23.256;2023-05-02T02:58:34;94922.31;;;10.74;61.79
6528;BME280;64597;42.664;23.256;2023-05-02T03:01:05;94928.13;;;10.65;62.70
6528;BME280;64597;42.664;23.256;2023-05-02T03:03:33;94931.56;;;10.65;62.69
6528;BME280;64597;42.664;23.256;2023-05-02T03:05:59;94921.47;;;10.62;62.83
6528;BME280;64597;42.664;23.256;2023-05-02T03:08:24;94919.91;;;10.43;63.03
6528;BME280;64597;42.664;23.256;2023-05-02T03:10:50;94902.81;;;10.34;63.01
6528;BME280;64597;42.664;23.256;2023-05-02T03:13:16;94933.50;;;10.58;62.85
6528;BME280;64597;42.664;23.256;2023-05-02T03:18:16;94938.78;;;10.58;62.82
6528;BME280;64597;42.664;23.256;2023-05-02T03:20:41;94925.91;;;10.50;62.36
6528;BME280;64597;42.664;23.256;2023-05-02T03:23:07;94931.63;;;10.47;63.20
6528;BME280;64597;42.664;23.256;2023-05-02T03:25:33;94938.03;;;10.51;62.41
6528;BME280;64597;42.664;23.256;2023-05-02T03:27:59;94938.50;;;10.48;62.54
6528;BME280;64597;42.664;23.256;2023-05-02T03:30:24;94928.31;;;10.52;62.22
6528;BME280;64597;42.664;23.256;2023-05-02T03:32:50;94939.66;;;10.52;62.37
6528;BME280;64597;42.664;23.256;2023-05-02T03:35:19;94924.25;;;10.38;62.51
6528;BME280;64597;42.664;23.256;2023-05-02T03:37:49;94944.13;;;10.52;62.56
6528;BME280;64597;42.664;23.256;2023-05-02T03:40:15;94942.63;;;10.44;62.64
6528;BME280;64597;42.664;23.256;2023-05-02T03:42:41;94932.97;;;10.38;62.00
6528;BME280;64597;42.664;23.256;2023-05-02T03:45:07;94939.41;;;10.42;61.98
6528;BME280;64597;42.664;23.256;2023-05-02T03:47:33;94937.63;;;10.54;62.26
6528;BME280;64597;42.664;23.256;2023-05-02T03:49:59;94934.72;;;10.44;62.06
6528;BME280;64597;42.664;23.256;2023-05-02T03:52:25;94950.78;;;10.54;62.41
6528;BME280;64597;42.664;23.256;2023-05-02T03:54:51;94945.53;;;10.54;62.39
6528;BME280;64597;42.664;23.256;2023-05-02T03:57:17;94945.13;;;10.51;62.22
6528;BME280;64597;42.664;23.256;2023-05-02T03:59:43;94948.47;;;10.46;62.64
6528;BME280;64597;42.664;23.256;2023-05-02T04:02:12;94939.22;;;10.55;62.61
6528;BME280;64597;42.664;23.256;2023-05-02T04:04:38;94943.47;;;10.56;63.33
6528;BME280;64597;42.664;23.256;2023-05-02T04:07:05;94948.75;;;10.56;62.90
6528;BME280;64597;42.664;23.256;2023-05-02T04:09:32;94945.78;;;10.64;62.67
6528;BME280;64597;42.664;23.256;2023-05-02T04:11:58;94926.16;;;10.60;62.97
6528;BME280;64597;42.664;23.256;2023-05-02T04:14:23;94948.31;;;10.71;62.40
6528;BME280;64597;42.664;23.256;2023-05-02T04:16:50;94940.09;;;10.79;62.32
6528;BME280;64597;42.664;23.256;2023-05-02T04:19:17;94915.88;;;10.70;62.57
6528;BME280;64597;42.664;23.256;2023-05-02T04:21:43;94933.78;;;10.92;62.43
6528;BME280;64597;42.664;23.256;2023-05-02T04:24:12;94931.38;;;10.90;62.19
6528;BME280;64597;42.664;23.256;2023-05-02T04:26:37;94935.66;;;11.03;61.98
6528;BME280;64597;42.664;23.256;2023-05-02T04:29:03;94930.59;;;11.13;62.46
6528;BME280;64597;42.664;23.256;2023-05-02T04:31:31;94938.19;;;11.21;61.90
6528;BME280;64597;42.664;23.256;2023-05-02T04:33:57;94922.25;;;11.16;62.45
6528;BME280;64597;42.664;23.256;2023-05-02T04:36:23;94940.84;;;11.32;62.66
6528;BME280;64597;42.664;23.256;2023-05-02T04:38:50;94943.25;;;11.34;63.07
6528;BME280;64597;42.664;23.256;2023-05-02T04:41:15;94932.91;;;11.44;62.69
6528;BME280;64597;42.664;23.256;2023-05-02T04:43:41;94942.53;;;11.61;62.68
6528;BME280;64597;42.664;23.256;2023-05-02T04:46:07;94951.41;;;11.79;62.30
6528;BME280;64597;42.664;23.256;2023-05-02T04:48:32;94946.47;;;11.94;62.22
6528;BME280;64597;42.664;23.256;2023-05-02T04:50:58;94946.63;;;12.15;61.82
6528;BME280;64597;42.664;23.256;2023-05-02T04:53:23;94944.28;;;12.30;61.59
6528;BME280;64597;42.664;23.256;2023-05-02T04:55:49;94940.53;;;12.43;60.95
6528;BME280;64597;42.664;23.256;2023-05-02T04:58:14;94949.66;;;12.64;60.41
6528;BME280;64597;42.664;23.256;2023-05-02T05:00:40;94953.84;;;12.76;59.62
6528;BME280;64597;42.664;23.256;2023-05-02T05:03:06;94944.66;;;12.95;59.17
6528;BME280;64597;42.664;23.256;2023-05-02T05:05:31;94936.78;;;13.12;58.28
6528;BME280;64597;42.664;23.256;2023-05-02T05:07:57;94943.50;;;13.19;57.81
6528;BME280;64597;42.664;23.256;2023-05-02T05:10:23;94947.84;;;13.26;56.93
6528;BME280;64597;42.664;23.256;2023-05-02T05:12:48;94948.31;;;13.39;57.07
6528;BME280;64597;42.664;23.256;2023-05-02T05:15:14;94944.13;;;13.43;56.42
6528;BME280;64597;42.664;23.256;2023-05-02T05:17:40;94945.44;;;13.57;55.72
6528;BME280;64597;42.664;23.256;2023-05-02T05:20:06;94947.97;;;13.69;55.44
6528;BME280;64597;42.664;23.256;2023-05-02T05:22:40;94949.56;;;13.70;55.71
6528;BME280;64597;42.664;23.256;2023-05-02T05:25:07;94942.28;;;13.82;54.68
6528;BME280;64597;42.664;23.256;2023-05-02T05:27:33;94946.09;;;14.07;54.07
6528;BME280;64597;42.664;23.256;2023-05-02T05:29:59;94951.53;;;14.18;54.28
6528;BME280;64597;42.664;23.256;2023-05-02T05:32:24;94953.41;;;14.39;53.74
6528;BME280;64597;42.664;23.256;2023-05-02T05:34:51;94959.66;;;14.49;53.46
6528;BME280;64597;42.664;23.256;2023-05-02T05:37:18;94963.84;;;14.72;52.97
6528;BME280;64597;42.664;23.256;2023-05-02T05:39:43;94929.25;;;14.62;52.08
6528;BME280;64597;42.664;23.256;2023-05-02T05:42:09;94954.59;;;15.01;51.51
6528;BME280;64597;42.664;23.256;2023-05-02T05:44:35;94955.91;;;15.30;51.48
6528;BME280;64597;42.664;23.256;2023-05-02T05:47:01;94952.41;;;15.51;51.08
6528;BME280;64597;42.664;23.256;2023-05-02T05:49:26;94955.78;;;15.84;49.82
6528;BME280;64597;42.664;23.256;2023-05-02T05:51:52;94954.06;;;16.04;49.10
6528;BME280;64597;42.664;23.256;2023-05-02T05:54:17;94956.53;;;16.21;48.14
6528;BME280;64597;42.664;23.256;2023-05-02T05:56:43;94949.16;;;16.43;47.83
6528;BME280;64597;42.664;23.256;2023-05-02T05:59:09;94949.81;;;16.65;47.04
6528;BME280;64597;42.664;23.256;2023-05-02T06:01:34;94967.22;;;17.08;46.67
6528;BME280;64597;42.664;23.256;2023-05-02T06:04:00;94964.03;;;17.46;45.35
6528;BME280;64597;42.664;23.256;2023-05-02T06:06:27;94966.19;;;17.74;44.77
6528;BME280;64597;42.664;23.256;2023-05-02T06:08:55;94963.22;;;17.96;43.91
6528;BME280;64597;42.664;23.256;2023-05-02T06:11:21;94965.03;;;18.21;43.68
6528;BME280;64597;42.664;23.256;2023-05-02T06:13:46;94947.47;;;18.78;45.41
6528;BME280;64597;42.664;23.256;2023-05-02T06:16:12;94947.81;;;19.11;42.12
6528;BME280;64597;42.664;23.256;2023-05-02T06:18:37;94956.22;;;19.28;40.36
6528;BME280;64597;42.664;23.256;2023-05-02T06:21:04;94944.41;;;19.44;40.08
6528;BME280;64597;42.664;23.256;2023-05-02T06:23:29;94941.97;;;19.76;39.71
6528;BME280;64597;42.664;23.256;2023-05-02T06:25:58;94941.13;;;19.81;39.36
6528;BME280;64597;42.664;23.256;2023-05-02T06:28:24;94943.94;;;20.18;38.88
6528;BME280;64597;42.664;23.256;2023-05-02T06:30:58;94956.00;;;20.20;37.77
6528;BME280;64597;42.664;23.256;2023-05-02T06:33:25;94950.19;;;19.85;37.61
6528;BME280;64597;42.664;23.256;2023-05-02T06:35:51;94945.78;;;19.99;37.73
6528;BME280;64597;42.664;23.256;2023-05-02T06:38:20;94951.75;;;19.91;37.62
6528;BME280;64597;42.664;23.256;2023-05-02T06:40:46;94950.59;;;19.97;37.26
6528;BME280;64597;42.664;23.256;2023-05-02T06:43:12;94945.09;;;20.12;36.82
6528;BME280;64597;42.664;23.256;2023-05-02T06:45:38;94945.06;;;20.64;36.33
6528;BME280;64597;42.664;23.256;2023-05-02T06:48:04;94954.06;;;20.92;36.28
6528;BME280;64597;42.664;23.256;2023-05-02T06:50:31;94938.22;;;21.14;35.03
6528;BME280;64597;42.664;23.256;2023-05-02T06:52:56;94941.75;;;21.47;34.76
6528;BME280;64597;42.664;23.256;2023-05-02T06:55:22;94935.22;;;21.53;34.64
6528;BME280;64597;42.664;23.256;2023-05-02T06:57:51;94936.03;;;21.85;33.76
6528;BME280;64597;42.664;23.256;2023-05-02T07:00:17;94949.25;;;21.82;33.37
6528;BME280;64597;42.664;23.256;2023-05-02T07:02:47;94943.16;;;21.76;33.46
6528;BME280;64597;42.664;23.256;2023-05-02T07:05:13;94957.88;;;22.11;33.27
6528;BME280;64597;42.664;23.256;2023-05-02T07:07:42;94937.19;;;22.11;32.43
6528;BME280;64597;42.664;23.256;2023-05-02T07:10:09;94952.31;;;22.35;32.47
6528;BME280;64597;42.664;23.256;2023-05-02T07:12:35;94953.31;;;22.39;31.58
6528;BME280;64597;42.664;23.256;2023-05-02T07:15:01;94951.81;;;22.33;31.73
6528;BME280;64597;42.664;23.256;2023-05-02T07:17:27;94951.13;;;22.13;31.64
6528;BME280;64597;42.664;23.256;2023-05-02T07:19:52;94950.94;;;22.24;31.98
6528;BME280;64597;42.664;23.256;2023-05-02T07:22:21;94950.34;;;22.54;31.59
6528;BME280;64597;42.664;23.256;2023-05-02T07:24:46;94953.91;;;22.49;31.19
6528;BME280;64597;42.664;23.256;2023-05-02T07:27:12;94961.91;;;22.68;30.83
6528;BME280;64597;42.664;23.256;2023-05-02T07:29:38;94952.97;;;22.59;30.79
6528;BME280;64597;42.664;23.256;2023-05-02T07:32:06;94945.97;;;22.71;30.61
6528;BME280;64597;42.664;23.256;2023-05-02T07:34:32;94947.00;;;23.11;30.19
6528;BME280;64597;42.664;23.256;2023-05-02T07:36:57;94968.19;;;23.26;29.69
6528;BME280;64597;42.664;23.256;2023-05-02T07:39:24;94935.91;;;23.26;29.82
6528;BME280;64597;42.664;23.256;2023-05-02T07:41:53;94951.69;;;23.55;29.11
6528;BME280;64597;42.664;23.256;2023-05-02T07:44:20;94951.13;;;23.89;29.11
6528;BME280;64597;42.664;23.256;2023-05-02T07:46:48;94957.78;;;24.44;28.72
6528;BME280;64597;42.664;23.256;2023-05-02T07:49:14;94953.66;;;24.46;27.42
6528;BME280;64597;42.664;23.256;2023-05-02T07:51:39;94962.69;;;24.11;27.90
6528;BME280;64597;42.664;23.256;2023-05-02T07:54:18;94950.28;;;24.41;28.31
6528;BME280;64597;42.664;23.256;2023-05-02T07:56:44;94946.06;;;24.48;27.51
6528;BME280;64597;42.664;23.256;2023-05-02T07:59:10;94952.03;;;24.76;26.90
6528;BME280;64597;42.664;23.256;2023-05-02T08:01:36;94947.84;;;25.09;26.56
6528;BME280;64597;42.664;23.256;2023-05-02T08:04:01;94945.63;;;25.37;26.41
6528;BME280;64597;42.664;23.256;2023-05-02T08:06:28;94951.53;;;25.65;26.12
6528;BME280;64597;42.664;23.256;2023-05-02T08:08:55;94944.03;;;25.87;26.11
6528;BME280;64597;42.664;23.256;2023-05-02T08:11:20;94950.81;;;26.19;25.93
6528;BME280;64597;42.664;23.256;2023-05-02T08:13:46;94942.41;;;26.03;25.39
6528;BME280;64597;42.664;23.256;2023-05-02T08:16:12;94951.50;;;26.07;25.46
6528;BME280;64597;42.664;23.256;2023-05-02T08:18:38;94956.97;;;26.45;25.68
6528;BME280;64597;42.664;23.256;2023-05-02T08:21:04;94950.81;;;26.65;24.90
6528;BME280;64597;42.664;23.256;2023-05-02T08:23:30;94952.41;;;26.29;25.21
6528;BME280;64597;42.664;23.256;2023-05-02T08:25:55;94941.63;;;26.03;25.40
6528;BME280;64597;42.664;23.256;2023-05-02T08:28:21;94955.84;;;26.46;24.86
6528;BME280;64597;42.664;23.256;2023-05-02T08:30:46;94949.00;;;26.40;24.67
6528;BME280;64597;42.664;23.256;2023-05-02T08:33:13;94940.66;;;26.62;24.97
6528;BME280;64597;42.664;23.256;2023-05-02T08:35:39;94960.41;;;26.54;24.85
6528;BME280;64597;42.664;23.256;2023-05-02T08:38:04;94953.78;;;26.43;24.88
6528;BME280;64597;42.664;23.256;2023-05-02T08:40:34;94945.97;;;26.88;24.47
6528;BME280;64597;42.664;23.256;2023-05-02T08:43:00;94950.09;;;26.48;24.86
6528;BME280;64597;42.664;23.256;2023-05-02T08:45:29;94948.44;;;26.00;25.55
6528;BME280;64597;42.664;23.256;2023-05-02T08:47:56;94952.00;;;25.58;25.75
6528;BME280;64597;42.664;23.256;2023-05-02T08:50:22;94951.72;;;25.51;26.08
6528;BME280;64597;42.664;23.256;2023-05-02T08:52:49;94949.00;;;25.43;26.00
6528;BME280;64597;42.664;23.256;2023-05-02T08:55:16;94946.59;;;25.84;25.82
6528;BME280;64597;42.664;23.256;2023-05-02T08:57:42;94947.38;;;26.10;25.02
6528;BME280;64597;42.664;23.256;2023-05-02T09:00:08;94950.66;;;26.24;24.79
6528;BME280;64597;42.664;23.256;2023-05-02T09:02:50;94939.31;;;25.67;25.97
6528;BME280;64597;42.664;23.256;2023-05-02T09:05:23;94948.00;;;25.21;26.46
6528;BME280;64597;42.664;23.256;2023-05-02T09:07:50;94943.53;;;25.00;26.59
6528;BME280;64597;42.664;23.256;2023-05-02T09:10:16;94933.81;;;24.82;26.86
6528;BME280;64597;42.664;23.256;2023-05-02T09:12:41;94939.13;;;24.65;27.52
6528;BME280;64597;42.664;23.256;2023-05-02T09:15:12;94937.47;;;24.94;26.82
6528;BME280;64597;42.664;23.256;2023-05-02T09:17:42;94933.19;;;24.85;26.89
6528;BME280;64597;42.664;23.256;2023-05-02T09:20:12;94938.97;;;24.61;27.15
6528;BME280;64597;42.664;23.256;2023-05-02T09:22:38;94931.91;;;24.43;27.07
6528;BME280;64597;42.664;23.256;2023-05-02T09:25:06;94930.94;;;24.30;27.73
6528;BME280;64597;42.664;23.256;2023-05-02T09:27:54;94929.22;;;24.12;27.86
6528;BME280;64597;42.664;23.256;2023-05-02T09:30:24;94933.97;;;24.07;28.56
6528;BME280;64597;42.664;23.256;2023-05-02T09:32:51;94918.91;;;24.36;28.02
6528;BME280;64597;42.664;23.256;2023-05-02T09:35:20;94923.97;;;24.38;27.78
6528;BME280;64597;42.664;23.256;2023-05-02T09:37:57;94921.34;;;24.16;27.97
6528;BME280;64597;42.664;23.256;2023-05-02T09:40:23;94924.31;;;24.14;27.72
6528;BME280;64597;42.664;23.256;2023-05-02T09:42:50;94927.34;;;24.52;27.42
6528;BME280;64597;42.664;23.256;2023-05-02T09:45:19;94922.13;;;24.47;27.13
6528;BME280;64597;42.664;23.256;2023-05-02T09:47:46;94913.19;;;24.38;27.52
6528;BME280;64597;42.664;23.256;2023-05-02T09:50:31;94915.53;;;24.31;27.16
6528;BME280;64597;42.664;23.256;2023-05-02T09:53:00;94914.88;;;24.25;27.58
6528;BME280;64597;42.664;23.256;2023-05-02T09:55:26;94907.47;;;24.39;27.41
6528;BME280;64597;42.664;23.256;2023-05-02T09:57:52;94920.63;;;24.32;26.81
6528;BME280;64597;42.664;23.256;2023-05-02T10:00:17;94912.03;;;24.22;27.15
6528;BME280;64597;42.664;23.256;2023-05-02T10:02:48;94913.78;;;24.35;26.59
6528;BME280;64597;42.664;23.256;2023-05-02T10:05:16;94913.63;;;24.31;26.57
6528;BME280;64597;42.664;23.256;2023-05-02T10:07:45;94914.63;;;24.05;26.94
6528;BME280;64597;42.664;23.256;2023-05-02T10:10:13;94907.69;;;23.90;27.16
6528;BME280;64597;42.664;23.256;2023-05-02T10:12:41;94889.91;;;23.81;27.26
6528;BME280;64597;42.664;23.256;2023-05-02T10:15:08;94890.50;;;24.00;27.65
6528;BME280;64597;42.664;23.256;2023-05-02T10:17:39;94882.69;;;23.98;27.45
6528;BME280;64597;42.664;23.256;2023-05-02T10:20:09;94893.22;;;24.08;27.68
6528;BME280;64597;42.664;23.256;2023-05-02T10:22:41;94885.72;;;23.97;27.98
6528;BME280;64597;42.664;23.256;2023-05-02T10:25:08;94883.91;;;23.84;27.55
6528;BME280;64597;42.664;23.256;2023-05-02T10:27:33;94889.47;;;23.87;27.11
6528;BME280;64597;42.664;23.256;2023-05-02T10:29:59;94881.84;;;23.81;26.86
6528;BME280;64597;42.664;23.256;2023-05-02T10:32:28;94884.22;;;23.82;27.06
6528;BME280;64597;42.664;23.256;2023-05-02T10:34:56;94870.59;;;24.09;27.76
6528;BME280;64597;42.664;23.256;2023-05-02T10:37:25;94866.38;;;24.25;26.84
6528;BME280;64597;42.664;23.256;2023-05-02T10:39:51;94861.22;;;24.07;25.42
6528;BME280;64597;42.664;23.256;2023-05-02T10:42:19;94868.50;;;24.06;26.26
6528;BME280;64597;42.664;23.256;2023-05-02T10:44:45;94857.63;;;23.89;26.08
6528;BME280;64597;42.664;23.256;2023-05-02T10:47:22;94866.72;;;24.02;26.27
6528;BME280;64597;42.664;23.256;2023-05-02T10:49:49;94862.44;;;24.01;26.44
6528;BME280;64597;42.664;23.256;2023-05-02T10:52:36;94861.09;;;24.12;26.28
6528;BME280;64597;42.664;23.256;2023-05-02T10:55:22;94859.38;;;24.16;25.74
6528;BME280;64597;42.664;23.256;2023-05-02T11:00:32;94846.84;;;24.20;25.62
6528;BME280;64597;42.664;23.256;2023-05-02T11:02:58;94853.06;;;24.29;26.04
6528;BME280;64597;42.664;23.256;2023-05-02T11:05:25;94857.97;;;24.27;25.44
6528;BME280;64597;42.664;23.256;2023-05-02T11:10:44;94860.00;;;23.91;24.66
6528;BME280;64597;42.664;23.256;2023-05-02T11:13:10;94854.47;;;23.87;24.24
6528;BME280;64597;42.664;23.256;2023-05-02T11:20:34;94845.97;;;23.71;24.69
6528;BME280;64597;42.664;23.256;2023-05-02T11:25:45;94845.09;;;23.85;24.86
6528;BME280;64597;42.664;23.256;2023-05-02T11:30:59;94834.53;;;23.66;24.94
6528;BME280;64597;42.664;23.256;2023-05-02T11:33:26;94828.25;;;23.70;24.69
6528;BME280;64597;42.664;23.256;2023-05-02T11:35:52;94835.94;;;23.86;25.77
6528;BME280;64597;42.664;23.256;2023-05-02T11:38:18;94820.84;;;23.85;25.41
6528;BME280;64597;42.664;23.256;2023-05-02T11:40:56;94803.69;;;23.72;25.42
6528;BME280;64597;42.664;23.256;2023-05-02T11:43:22;94820.00;;;23.75;25.36
6528;BME280;64597;42.664;23.256;2023-05-02T11:45:49;94821.72;;;23.71;25.07
6528;BME280;64597;42.664;23.256;2023-05-02T11:48:17;94819.13;;;23.58;25.25
6528;BME280;64597;42.664;23.256;2023-05-02T11:53:12;94804.41;;;23.55;26.59
6528;BME280;64597;42.664;23.256;2023-05-02T11:55:49;94813.47;;;23.37;25.42
6528;BME280;64597;42.664;23.256;2023-05-02T11:58:17;94819.78;;;23.33;26.09
6528;BME280;64597;42.664;23.256;2023-05-02T12:00:43;94813.78;;;23.14;26.38
6528;BME280;64597;42.664;23.256;2023-05-02T12:05:48;94807.84;;;22.81;26.62
6528;BME280;64597;42.664;23.256;2023-05-02T12:08:19;94793.91;;;22.79;26.58
6528;BME280;64597;42.664;23.256;2023-05-02T12:10:45;94789.84;;;22.68;26.85
6528;BME280;64597;42.664;23.256;2023-05-02T12:13:13;94782.22;;;22.48;26.74
6528;BME280;64597;42.664;23.256;2023-05-02T12:15:39;94784.50;;;22.54;27.42
6528;BME280;64597;42.664;23.256;2023-05-02T12:18:06;94785.38;;;22.63;27.59
6528;BME280;64597;42.664;23.256;2023-05-02T12:20:32;94778.94;;;22.64;27.38
6528;BME280;64597;42.664;23.256;2023-05-02T12:22:58;94787.09;;;22.59;27.31
6528;BME280;64597;42.664;23.256;2023-05-02T12:25:23;94785.91;;;22.52;27.17
6528;BME280;64597;42.664;23.256;2023-05-02T12:28:01;94776.69;;;22.31;27.65
6528;BME280;64597;42.664;23.256;2023-05-02T12:30:29;94769.81;;;22.25;27.39
6528;BME280;64597;42.664;23.256;2023-05-02T12:32:59;94771.03;;;22.19;27.84
6528;BME280;64597;42.664;23.256;2023-05-02T12:35:29;94758.72;;;22.04;27.79
6528;BME280;64597;42.664;23.256;2023-05-02T12:38:18;94764.69;;;22.14;28.08
6528;BME280;64597;42.664;23.256;2023-05-02T12:40:52;94749.66;;;22.13;27.86
6528;BME280;64597;42.664;23.256;2023-05-02T12:43:41;94744.56;;;22.26;27.90
6528;BME280;64597;42.664;23.256;2023-05-02T12:46:26;94742.06;;;22.29;27.73
6528;BME280;64597;42.664;23.256;2023-05-02T12:49:05;94745.16;;;22.23;27.82
6528;BME280;64597;42.664;23.256;2023-05-02T12:51:32;94731.94;;;22.26;27.63
6528;BME280;64597;42.664;23.256;2023-05-02T12:53:58;94723.56;;;22.28;28.38
6528;BME280;64597;42.664;23.256;2023-05-02T12:56:24;94731.41;;;22.38;27.88
6528;BME280;64597;42.664;23.256;2023-05-02T12:58:56;94710.06;;;22.19;27.97
6528;BME280;64597;42.664;23.256;2023-05-02T13:01:23;94737.31;;;22.12;27.58
6528;BME280;64597;42.664;23.256;2023-05-02T13:03:49;94728.41;;;22.03;28.41
6528;BME280;64597;42.664;23.256;2023-05-02T13:06:15;94742.81;;;22.07;28.00
6528;BME280;64597;42.664;23.256;2023-05-02T13:08:40;94727.41;;;21.99;28.09
6528;BME280;64597;42.664;23.256;2023-05-02T13:11:06;94714.06;;;21.67;28.22
6528;BME280;64597;42.664;23.256;2023-05-02T13:13:31;94726.91;;;21.70;28.16
6528;BME280;64597;42.664;23.256;2023-05-02T13:15:57;94732.88;;;21.81;28.48
6528;BME280;64597;42.664;23.256;2023-05-02T13:18:23;94729.69;;;21.65;28.09
6528;BME280;64597;42.664;23.256;2023-05-02T13:20:49;94744.91;;;21.56;28.40
6528;BME280;64597;42.664;23.256;2023-05-02T13:23:14;94719.38;;;21.59;28.52
6528;BME280;64597;42.664;23.256;2023-05-02T13:25:41;94733.06;;;21.57;28.14
6528;BME280;64597;42.664;23.256;2023-05-02T13:28:06;94720.75;;;21.43;28.20
6528;BME280;64597;42.664;23.256;2023-05-02T13:30:32;94738.81;;;21.37;28.19
6528;BME280;64597;42.664;23.256;2023-05-02T13:32:57;94718.13;;;21.24;28.86
6528;BME280;64597;42.664;23.256;2023-05-02T13:35:23;94720.44;;;21.17;29.10